createdAt,value
2023-04-10T00:01:01.005Z,12.30
2023-04-10T00:03:28.422Z,12.27
2023-04-10T00:05:56.213Z,11.15
2023-04-10T00:08:24.774Z,12.27
2023-04-10T00:10:52.150Z,12.95
2023-04-10T00:13:19.197Z,12.45
2023-04-10T00:15:46.396Z,12.40
2023-04-10T00:18:13.536Z,11.88
2023-04-10T00:20:40.789Z,12.20
2023-04-10T00:23:07.840Z,11.93
2023-04-10T00:25:34.983Z,10.40
2023-04-10T00:28:02.095Z,11.52
2023-04-10T00:30:29.069Z,11.85
2023-04-10T00:32:56.029Z,11.55
2023-04-10T00:35:23.157Z,11.98
2023-04-10T00:37:50.842Z,11.95
2023-04-10T00:40:18.161Z,11.07
2023-04-10T00:42:45.393Z,11.30
2023-04-10T00:45:12.733Z,11.65
2023-04-10T00:47:41.014Z,10.48
2023-04-10T00:50:08.255Z,10.85
2023-04-10T00:52:36.255Z,12.15
2023-04-10T00:55:12.933Z,12.18
2023-04-10T00:57:44.278Z,10.43
2023-04-10T01:00:12.504Z,10.93
2023-04-10T01:02:48.318Z,11.80
2023-04-10T01:05:15.820Z,11.40
2023-04-10T01:08:09.643Z,11.60
2023-04-10T01:10:50.707Z,12.13
2023-04-10T01:13:32.564Z,11.65
2023-04-10T01:16:10.360Z,12.25
2023-04-10T01:18:56.406Z,12.07
2023-04-10T01:21:36.569Z,10.70
2023-04-10T01:24:37.745Z,11.70
2023-04-10T01:27:32.892Z,10.95
2023-04-10T01:30:02.936Z,11.90
2023-04-10T01:32:34.185Z,12.95
2023-04-10T01:35:07.064Z,12.10
2023-04-10T01:37:38.892Z,11.45
2023-04-10T01:40:10.478Z,12.10
2023-04-10T01:42:47.816Z,12.30
2023-04-10T01:45:35.182Z,11.15
2023-04-10T01:48:02.580Z,10.00
2023-04-10T01:50:30.709Z,10.68
2023-04-10T01:52:59.363Z,11.15
2023-04-10T01:55:27.762Z,9.98
2023-04-10T01:57:55.085Z,10.23
2023-04-10T02:00:22.931Z,10.25
2023-04-10T02:02:51.160Z,9.98
2023-04-10T02:05:18.782Z,10.30
2023-04-10T02:08:02.330Z,9.93
2023-04-10T02:10:41.220Z,10.32
2023-04-10T02:13:11.761Z,9.75
2023-04-10T02:15:42.795Z,9.88
2023-04-10T02:18:11.499Z,9.57
2023-04-10T02:20:38.632Z,9.15
2023-04-10T02:23:06.967Z,10.25
2023-04-10T02:25:34.883Z,9.48
2023-04-10T02:28:08.593Z,9.80
2023-04-10T02:30:39.452Z,9.88
2023-04-10T02:33:09.067Z,9.48
2023-04-10T02:35:37.745Z,8.57
2023-04-10T02:38:05.238Z,8.65
2023-04-10T02:40:32.137Z,9.00
2023-04-10T02:42:59.364Z,10.27
2023-04-10T02:45:26.476Z,8.95
2023-04-10T02:47:53.415Z,9.63
2023-04-10T02:50:29.736Z,8.77
2023-04-10T02:52:57.075Z,9.80
2023-04-10T02:55:27.231Z,8.85
2023-04-10T02:57:54.602Z,8.88
2023-04-10T03:00:44.861Z,9.60
2023-04-10T03:03:17.438Z,8.55
2023-04-10T03:05:47.070Z,9.35
2023-04-10T03:08:14.555Z,8.38
2023-04-10T03:10:46.252Z,9.63
2023-04-10T03:13:13.421Z,9.07
2023-04-10T03:15:41.015Z,8.60
2023-04-10T03:18:09.247Z,8.93
2023-04-10T03:20:40.134Z,8.60
2023-04-10T03:23:07.410Z,9.10
2023-04-10T03:25:35.017Z,9.27
2023-04-10T03:28:02.057Z,8.40
2023-04-10T03:30:29.167Z,8.60
2023-04-10T03:32:56.240Z,8.20
2023-04-10T03:35:23.204Z,9.18
2023-04-10T03:37:50.368Z,8.85
2023-04-10T03:40:17.407Z,8.80
2023-04-10T03:42:44.450Z,9.60
2023-04-10T03:45:12.146Z,8.57
2023-04-10T03:47:39.284Z,8.10
2023-04-10T03:50:06.638Z,9.27
2023-04-10T03:52:33.675Z,8.07
2023-04-10T03:55:00.619Z,9.60
2023-04-10T03:57:27.628Z,8.68
2023-04-10T03:59:54.705Z,8.95
2023-04-10T04:02:23.974Z,8.70
2023-04-10T04:04:51.279Z,9.10
2023-04-10T04:07:18.454Z,9.32
2023-04-10T04:09:45.613Z,9.50
2023-04-10T04:12:12.808Z,8.98
2023-04-10T04:14:42.184Z,9.73
2023-04-10T04:17:09.069Z,9.93
2023-04-10T04:19:36.093Z,10.18
2023-04-10T04:22:03.089Z,10.95
2023-04-10T04:24:30.110Z,10.00
2023-04-10T04:26:57.304Z,8.68
2023-04-10T04:29:24.487Z,9.27
2023-04-10T04:31:51.536Z,9.90
2023-04-10T04:34:18.616Z,10.90
2023-04-10T04:36:45.528Z,9.75
2023-04-10T04:39:16.146Z,10.15
2023-04-10T04:41:43.030Z,10.55
2023-04-10T04:44:10.426Z,9.70
2023-04-10T04:46:37.362Z,10.35
2023-04-10T04:49:04.304Z,9.98
2023-04-10T04:51:31.167Z,10.27
2023-04-10T04:54:03.805Z,9.27
2023-04-10T04:56:30.823Z,10.23
2023-04-10T04:58:57.780Z,9.30
2023-04-10T05:01:25.625Z,9.90
2023-04-10T05:03:52.619Z,9.70
2023-04-10T05:06:20.489Z,9.70
2023-04-10T05:08:47.405Z,9.70
2023-04-10T05:11:14.374Z,8.85
2023-04-10T05:13:41.698Z,10.10
2023-04-10T05:16:09.058Z,8.73
2023-04-10T05:18:36.560Z,9.55
2023-04-10T05:21:03.852Z,8.63
2023-04-10T05:23:31.009Z,8.85
2023-04-10T05:25:58.069Z,9.32
2023-04-10T05:28:25.159Z,9.02
2023-04-10T05:30:52.372Z,9.75
2023-04-10T05:33:22.235Z,9.20
2023-04-10T05:35:50.611Z,8.75
2023-04-10T05:38:17.500Z,8.82
2023-04-10T05:40:48.006Z,9.43
2023-04-10T05:43:14.994Z,9.05
2023-04-10T05:45:44.894Z,9.10
2023-04-10T05:48:28.820Z,8.40
2023-04-10T05:50:55.780Z,9.80
2023-04-10T05:53:29.874Z,9.63
2023-04-10T05:55:57.476Z,9.07
2023-04-10T05:58:24.431Z,8.80
2023-04-10T06:00:51.775Z,8.60
2023-04-10T06:03:20.031Z,9.65
2023-04-10T06:05:47.214Z,8.77
2023-04-10T06:08:14.083Z,9.80
2023-04-10T06:10:41.222Z,8.80
2023-04-10T06:13:17.153Z,8.50
2023-04-10T06:15:44.137Z,9.25
2023-04-10T06:18:11.438Z,9.13
2023-04-10T06:20:38.628Z,9.98
2023-04-10T06:23:06.337Z,9.32
2023-04-10T06:25:33.614Z,9.15
2023-04-10T06:28:00.863Z,9.00
2023-04-10T06:30:28.021Z,8.80
2023-04-10T06:32:59.457Z,9.52
2023-04-10T06:35:26.759Z,9.52
2023-04-10T06:37:53.620Z,8.30
2023-04-10T06:40:20.763Z,8.80
2023-04-10T06:42:47.828Z,8.30
2023-04-10T06:45:14.711Z,9.23
2023-04-10T06:47:44.518Z,8.02
2023-04-10T06:50:11.464Z,7.75
2023-04-10T06:52:38.466Z,9.10
2023-04-10T06:55:06.029Z,8.85
2023-04-10T06:57:32.798Z,8.48
2023-04-10T06:59:59.591Z,7.97
2023-04-10T07:02:26.580Z,8.25
2023-04-10T07:04:53.762Z,8.48
2023-04-10T07:07:20.780Z,8.18
2023-04-10T07:09:48.863Z,8.43
2023-04-10T07:12:16.587Z,8.32
2023-04-10T07:14:43.544Z,8.32
2023-04-10T07:17:10.419Z,8.82
2023-04-10T07:19:38.291Z,8.25
2023-04-10T07:22:05.197Z,8.17
2023-04-10T07:24:32.762Z,8.30
2023-04-10T07:27:01.652Z,9.20
2023-04-10T07:29:28.504Z,8.30
2023-04-10T07:31:55.637Z,8.57
2023-04-10T07:34:22.651Z,8.40
2023-04-10T07:36:49.610Z,8.67
2023-04-10T07:39:16.526Z,9.07
2023-04-10T07:41:44.011Z,7.80
2023-04-10T07:44:11.459Z,7.37
2023-04-10T07:46:41.897Z,8.13
2023-04-10T07:49:10.097Z,8.50
2023-04-10T07:51:37.301Z,7.90
2023-04-10T07:54:04.597Z,8.17
2023-04-10T07:56:31.615Z,8.20
2023-04-10T07:59:01.674Z,8.10
2023-04-10T08:01:29.011Z,7.23
2023-04-10T08:03:59.359Z,7.30
2023-04-10T08:06:26.830Z,6.50
2023-04-10T08:08:53.813Z,6.97
2023-04-10T08:11:26.672Z,7.10
2023-04-10T08:13:55.919Z,6.50
2023-04-10T08:16:30.935Z,6.43
2023-04-10T08:18:58.390Z,7.10
2023-04-10T08:21:29.885Z,6.73
2023-04-10T08:23:58.667Z,6.30
2023-04-10T08:26:26.660Z,6.20
2023-04-10T08:28:56.413Z,6.70
2023-04-10T08:31:25.212Z,7.10
2023-04-10T08:33:52.224Z,7.60
2023-04-10T08:36:20.431Z,7.30
2023-04-10T08:38:48.151Z,7.27
2023-04-10T08:41:17.094Z,6.73
2023-04-10T08:43:45.809Z,7.00
2023-04-10T08:46:14.618Z,7.60
2023-04-10T08:49:03.648Z,7.63
2023-04-10T08:51:40.622Z,6.90
2023-04-10T08:54:11.083Z,6.67
2023-04-10T08:56:40.896Z,7.17
2023-04-10T08:59:08.353Z,7.83
2023-04-10T09:01:36.454Z,5.93
2023-04-10T09:04:03.605Z,6.53
2023-04-10T09:06:31.534Z,6.60
2023-04-10T09:11:52.434Z,6.70
2023-04-10T09:14:23.864Z,6.03
2023-04-10T09:16:52.479Z,6.00
2023-04-10T09:19:32.887Z,6.27
2023-04-10T09:22:00.413Z,6.40
2023-04-10T09:24:27.578Z,6.07
2023-04-10T09:26:55.456Z,5.53
2023-04-10T09:29:22.274Z,5.93
2023-04-10T09:31:50.746Z,6.47
2023-04-10T09:34:22.438Z,7.10
2023-04-10T09:37:00.126Z,7.00
2023-04-10T09:39:47.203Z,6.40
2023-04-10T09:42:15.022Z,5.30
2023-04-10T09:44:42.882Z,5.80
2023-04-10T09:47:20.491Z,5.53
2023-04-10T09:49:55.446Z,5.17
2023-04-10T09:52:27.247Z,5.20
2023-04-10T09:54:59.004Z,5.00
2023-04-10T09:57:28.396Z,4.63
2023-04-10T10:00:01.491Z,4.37
2023-04-10T10:02:35.047Z,4.30
2023-04-10T10:05:05.426Z,4.97
2023-04-10T10:07:32.700Z,4.40
2023-04-10T10:10:02.725Z,5.67
2023-04-10T10:12:46.103Z,5.13
2023-04-10T10:15:37.408Z,4.67
2023-04-10T10:18:19.940Z,4.90
2023-04-10T10:20:47.568Z,4.87
2023-04-10T10:23:17.577Z,4.10
2023-04-10T10:25:46.084Z,5.30
2023-04-10T10:28:14.054Z,4.77
2023-04-10T10:30:41.151Z,5.00
2023-04-10T10:33:08.799Z,4.53
2023-04-10T10:35:37.420Z,4.43
2023-04-10T10:38:05.532Z,4.80
2023-04-10T10:40:39.752Z,4.80
2023-04-10T10:43:25.709Z,4.37
2023-04-10T10:45:58.318Z,4.43
2023-04-10T10:48:25.417Z,4.50
2023-04-10T10:50:58.172Z,4.33
2023-04-10T10:53:44.094Z,4.97
2023-04-10T10:56:19.857Z,5.10
2023-04-10T10:58:52.599Z,4.07
2023-04-10T11:01:21.802Z,4.77
2023-04-10T11:03:50.995Z,4.67
2023-04-10T11:06:19.916Z,4.20
2023-04-10T11:08:54.023Z,4.17
2023-04-10T11:11:25.086Z,4.30
2023-04-10T11:13:57.746Z,4.73
2023-04-10T11:16:43.844Z,4.70
2023-04-10T11:19:16.364Z,4.43
2023-04-10T11:22:10.642Z,3.80
2023-04-10T11:24:58.025Z,4.30
2023-04-10T11:27:51.811Z,4.30
2023-04-10T11:30:30.131Z,4.00
2023-04-10T11:32:57.792Z,3.70
2023-04-10T11:35:26.779Z,3.33
2023-04-10T11:38:08.917Z,3.63
2023-04-10T11:40:35.890Z,4.20
2023-04-10T11:43:15.364Z,3.40
2023-04-10T11:45:42.338Z,3.43
2023-04-10T11:48:09.570Z,2.43
2023-04-10T11:50:36.494Z,3.57
2023-04-10T11:53:18.463Z,3.97
2023-04-10T11:55:45.373Z,3.50
2023-04-10T11:58:26.294Z,3.87
2023-04-10T12:01:14.493Z,4.00
2023-04-10T12:03:43.897Z,3.50
2023-04-10T12:06:15.603Z,3.47
2023-04-10T12:08:51.666Z,3.17
2023-04-10T12:11:22.770Z,3.17
2023-04-10T12:13:56.900Z,3.10
2023-04-10T12:16:27.466Z,3.30
2023-04-10T12:18:55.127Z,3.13
2023-04-10T12:21:22.309Z,3.23
2023-04-10T12:23:49.150Z,2.60
2023-04-10T12:26:17.587Z,3.17
2023-04-10T12:28:55.898Z,2.37
2023-04-10T12:31:34.710Z,2.73
2023-04-10T12:34:03.085Z,3.30
2023-04-10T12:36:32.344Z,3.00
2023-04-10T12:39:04.194Z,3.60
2023-04-10T12:41:32.804Z,3.33
2023-04-10T12:44:13.720Z,3.20
2023-04-10T12:46:41.908Z,3.30
2023-04-10T12:49:18.775Z,3.27
2023-04-10T12:51:52.891Z,2.93
2023-04-10T12:54:37.281Z,3.03
2023-04-10T12:57:04.423Z,3.30
2023-04-10T12:59:32.158Z,3.83
2023-04-10T13:01:59.179Z,3.77
2023-04-10T13:04:26.295Z,3.63
2023-04-10T13:06:53.297Z,3.60
2023-04-10T13:09:20.298Z,3.00
2023-04-10T13:11:48.141Z,3.43
2023-04-10T13:14:17.076Z,3.13
2023-04-10T13:16:44.167Z,3.20
2023-04-10T13:19:11.045Z,3.47
2023-04-10T13:21:37.888Z,3.00
2023-04-10T13:24:04.771Z,2.80
2023-04-10T13:26:31.601Z,3.60
2023-04-10T13:28:58.414Z,2.90
2023-04-10T13:31:25.253Z,3.20
2023-04-10T13:33:52.091Z,2.97
2023-04-10T13:36:18.989Z,3.00
2023-04-10T13:38:45.948Z,2.97
2023-04-10T13:41:12.849Z,3.17
2023-04-10T13:43:39.649Z,2.47
2023-04-10T13:46:06.673Z,3.40
2023-04-10T13:48:40.047Z,3.00
2023-04-10T13:51:10.398Z,3.03
2023-04-10T13:53:37.202Z,2.70
2023-04-10T13:56:05.606Z,2.87
2023-04-10T13:58:34.440Z,3.07
2023-04-10T14:01:01.752Z,2.53
2023-04-10T14:03:28.670Z,2.50
2023-04-10T14:05:55.779Z,2.90
2023-04-10T14:08:22.613Z,2.90
2023-04-10T14:10:52.733Z,3.03
2023-04-10T14:13:19.801Z,2.70
2023-04-10T14:15:47.163Z,2.50
2023-04-10T14:18:17.560Z,2.80
2023-04-10T14:20:44.815Z,2.07
2023-04-10T14:23:18.130Z,2.67
2023-04-10T14:25:46.009Z,2.70
2023-04-10T14:28:18.780Z,2.30
2023-04-10T14:30:48.389Z,2.73
2023-04-10T14:33:15.788Z,3.23
2023-04-10T14:35:43.690Z,2.90
2023-04-10T14:38:10.842Z,2.63
2023-04-10T14:40:37.841Z,3.07
2023-04-10T14:43:04.685Z,2.77
2023-04-10T14:45:32.658Z,2.40
2023-04-10T14:47:59.712Z,2.10
2023-04-10T14:50:26.684Z,3.03
2023-04-10T14:52:53.518Z,3.70
2023-04-10T14:55:20.342Z,3.13
2023-04-10T14:57:47.218Z,3.43
2023-04-10T15:00:14.174Z,3.20
2023-04-10T15:02:41.141Z,3.00
2023-04-10T15:05:08.110Z,3.07
2023-04-10T15:07:34.900Z,3.07
2023-04-10T15:10:01.694Z,2.70
2023-04-10T15:12:28.554Z,3.00
2023-04-10T15:14:55.442Z,3.00
2023-04-10T15:17:23.536Z,3.40
2023-04-10T15:19:50.529Z,3.37
2023-04-10T15:22:17.347Z,2.87
2023-04-10T15:24:50.414Z,2.90
2023-04-10T15:27:21.189Z,3.03
2023-04-10T15:29:48.154Z,4.07
2023-04-10T15:32:15.129Z,3.27
2023-04-10T15:34:42.078Z,3.27
2023-04-10T15:37:08.997Z,3.30
2023-04-10T15:39:37.325Z,3.90
2023-04-10T15:42:06.230Z,2.97
2023-04-10T15:44:33.061Z,3.90
2023-04-10T15:46:59.897Z,4.00
2023-04-10T15:49:37.160Z,3.90
2023-04-10T15:52:08.229Z,3.70
2023-04-10T15:54:35.363Z,3.90
2023-04-10T15:57:03.372Z,3.83
2023-04-10T15:59:30.441Z,3.30
2023-04-10T16:01:57.390Z,3.70
2023-04-10T16:04:24.885Z,3.53
2023-04-10T16:06:51.924Z,3.60
2023-04-10T16:11:50.272Z,3.60
2023-04-10T16:14:19.043Z,4.13
2023-04-10T16:16:46.106Z,4.23
2023-04-10T16:19:12.976Z,4.17
2023-04-10T16:21:40.093Z,4.20
2023-04-10T16:24:07.285Z,3.90
2023-04-10T16:26:34.261Z,4.33
2023-04-10T16:29:01.245Z,4.23
2023-04-10T16:31:28.115Z,4.43
2023-04-10T16:33:54.977Z,4.13
2023-04-10T16:36:21.906Z,4.30
2023-04-10T16:38:49.890Z,4.47
2023-04-10T16:41:18.485Z,3.97
2023-04-10T16:43:45.396Z,3.97
2023-04-10T16:46:12.350Z,4.00
2023-04-10T16:48:39.201Z,3.80
2023-04-10T16:51:07.089Z,3.90
2023-04-10T16:53:36.210Z,4.07
2023-04-10T16:56:05.071Z,3.97
2023-04-10T16:58:33.914Z,3.60
2023-04-10T17:01:01.050Z,4.30
2023-04-10T17:03:28.182Z,4.23
2023-04-10T17:05:55.136Z,4.27
2023-04-10T17:08:22.085Z,4.00
2023-04-10T17:10:49.558Z,4.00
2023-04-10T17:13:17.371Z,4.90
2023-04-10T17:15:45.293Z,3.80
2023-04-10T17:18:12.669Z,4.03
2023-04-10T17:20:39.655Z,4.87
2023-04-10T17:23:06.715Z,4.10
2023-04-10T17:25:33.582Z,4.83
2023-04-10T17:28:00.452Z,4.40
2023-04-10T17:30:27.322Z,4.60
2023-04-10T17:32:54.190Z,4.10
2023-04-10T17:35:21.129Z,4.00
2023-04-10T17:37:47.907Z,3.93
2023-04-10T17:40:14.789Z,4.63
2023-04-10T17:42:41.883Z,3.97
2023-04-10T17:45:09.001Z,4.30
2023-04-10T17:47:36.098Z,4.13
2023-04-10T17:50:04.145Z,4.13
2023-04-10T17:52:31.072Z,5.13
2023-04-10T17:54:59.395Z,4.40
2023-04-10T17:57:26.330Z,4.83
2023-04-10T17:59:53.291Z,4.47
2023-04-10T18:02:20.476Z,4.70
2023-04-10T18:04:47.395Z,4.70
2023-04-10T18:07:14.197Z,4.77
2023-04-10T18:09:41.122Z,4.57
2023-04-10T18:12:08.074Z,4.60
2023-04-10T18:14:36.424Z,4.73
2023-04-10T18:17:03.668Z,4.83
2023-04-10T18:19:30.964Z,4.50
2023-04-10T18:21:57.776Z,4.73
2023-04-10T18:24:24.670Z,4.40
2023-04-10T18:26:51.701Z,4.47
2023-04-10T18:29:18.609Z,4.60
2023-04-10T18:31:45.400Z,5.00
2023-04-10T18:34:12.370Z,4.73
2023-04-10T18:36:39.515Z,5.60
2023-04-10T18:39:06.570Z,5.00
2023-04-10T18:41:33.474Z,4.57
2023-04-10T18:44:05.446Z,4.73
2023-04-10T18:46:33.312Z,4.80
2023-04-10T18:49:01.281Z,5.13
2023-04-10T18:51:28.636Z,4.73
2023-04-10T18:53:55.888Z,5.10
2023-04-10T18:56:22.962Z,4.73
2023-04-10T18:58:50.316Z,5.03
2023-04-10T19:01:20.131Z,5.03
2023-04-10T19:03:50.081Z,5.03
2023-04-10T19:06:23.783Z,4.93
2023-04-10T19:08:51.379Z,5.33
2023-04-10T19:11:18.742Z,4.65
2023-04-10T19:13:45.620Z,5.10
2023-04-10T19:16:14.716Z,5.40
2023-04-10T19:18:41.842Z,5.55
2023-04-10T19:21:08.775Z,5.15
2023-04-10T19:23:35.695Z,5.70
2023-04-10T19:26:02.549Z,5.72
2023-04-10T19:28:30.114Z,5.00
2023-04-10T19:30:57.057Z,5.72
2023-04-10T19:33:24.283Z,5.47
2023-04-10T19:35:51.156Z,5.47
2023-04-10T19:38:18.340Z,5.77
2023-04-10T19:40:45.498Z,6.85
2023-04-10T19:43:12.444Z,5.80
2023-04-10T19:45:39.990Z,5.72
2023-04-10T19:48:09.857Z,6.20
2023-04-10T19:50:36.775Z,6.05
2023-04-10T19:53:04.382Z,5.55
2023-04-10T19:55:31.736Z,6.75
2023-04-10T19:57:58.656Z,6.25
2023-04-10T20:00:25.723Z,6.00
2023-04-10T20:02:52.830Z,5.40
2023-04-10T20:05:20.012Z,6.10
2023-04-10T20:07:46.872Z,5.85
2023-04-10T20:10:13.725Z,5.93
2023-04-10T20:12:40.678Z,5.93
2023-04-10T20:15:08.878Z,6.32
2023-04-10T20:17:36.105Z,6.50
2023-04-10T20:20:03.637Z,5.80
2023-04-10T20:22:30.834Z,6.10
2023-04-10T20:24:57.671Z,5.53
2023-04-10T20:27:24.778Z,6.00
2023-04-10T20:29:51.665Z,5.57
2023-04-10T20:32:18.521Z,5.93
2023-04-10T20:34:45.405Z,5.93
2023-04-10T20:37:13.709Z,5.93
2023-04-10T20:39:40.582Z,5.53
2023-04-10T20:42:07.674Z,6.15
2023-04-10T20:44:37.888Z,6.15
2023-04-10T20:47:08.119Z,5.97
2023-04-10T20:49:37.544Z,5.80
2023-04-10T20:52:05.158Z,5.60
2023-04-10T20:54:33.048Z,6.25
2023-04-10T20:57:01.773Z,5.75
2023-04-10T20:59:29.683Z,5.82
2023-04-10T21:01:56.768Z,5.53
2023-04-10T21:04:23.760Z,6.03
2023-04-10T21:06:50.681Z,6.50
2023-04-10T21:09:17.548Z,6.50
2023-04-10T21:11:44.394Z,6.80
2023-04-10T21:14:11.236Z,6.25
2023-04-10T21:16:41.353Z,6.25
2023-04-10T21:19:11.115Z,6.05
2023-04-10T21:21:38.080Z,6.25
2023-04-10T21:24:06.007Z,6.10
2023-04-10T21:26:32.936Z,5.50
2023-04-10T21:28:59.820Z,6.28
2023-04-10T21:31:26.761Z,6.10
2023-04-10T21:33:53.652Z,5.70
2023-04-10T21:36:20.848Z,5.82
2023-04-10T21:38:47.733Z,5.78
2023-04-10T21:41:15.479Z,5.70
2023-04-10T21:43:43.248Z,5.75
2023-04-10T21:46:10.969Z,5.40
2023-04-10T21:48:37.872Z,6.15
2023-04-10T21:51:05.030Z,4.97
2023-04-10T21:53:31.917Z,5.60
2023-04-10T21:55:58.748Z,5.65
2023-04-10T21:58:25.593Z,6.28
2023-04-10T22:00:54.488Z,5.63
2023-04-10T22:03:22.301Z,5.72
2023-04-10T22:05:50.519Z,6.45
2023-04-10T22:08:19.971Z,5.80
2023-04-10T22:10:48.115Z,5.95
2023-04-10T22:13:27.580Z,5.55
2023-04-10T22:15:57.752Z,6.45
2023-04-10T22:18:24.589Z,5.50
2023-04-10T22:20:51.512Z,5.47
2023-04-10T22:23:18.389Z,5.57
2023-04-10T22:25:45.221Z,5.53
2023-04-10T22:28:12.112Z,6.13
2023-04-10T22:30:39.001Z,5.55
2023-04-10T22:33:06.018Z,5.40
2023-04-10T22:35:33.385Z,5.88
2023-04-10T22:38:00.232Z,5.00
2023-04-10T22:40:27.002Z,5.72
2023-04-10T22:42:53.834Z,5.80
2023-04-10T22:45:20.762Z,4.82
2023-04-10T22:47:47.678Z,5.22
2023-04-10T22:50:14.617Z,5.60
2023-04-10T22:52:41.415Z,4.95
2023-04-10T22:55:08.647Z,5.40
2023-04-10T22:57:35.728Z,4.70
2023-04-10T23:00:02.656Z,4.80
2023-04-10T23:02:31.331Z,4.85
2023-04-10T23:04:58.368Z,4.55
2023-04-10T23:07:26.120Z,4.18
2023-04-10T23:09:53.055Z,4.85
2023-04-10T23:12:19.943Z,4.68
2023-04-10T23:14:46.816Z,4.25
2023-04-10T23:17:13.740Z,4.93
2023-04-10T23:19:40.643Z,4.25
2023-04-10T23:22:07.519Z,4.30
2023-04-10T23:24:34.402Z,4.32
2023-04-10T23:27:01.247Z,4.20
2023-04-10T23:29:28.122Z,4.22
2023-04-10T23:31:54.973Z,4.70
2023-04-10T23:34:21.964Z,4.40
2023-04-10T23:36:48.857Z,3.60
2023-04-10T23:39:15.847Z,3.95
2023-04-10T23:41:42.942Z,3.80
2023-04-10T23:44:09.965Z,4.50
2023-04-10T23:46:36.826Z,4.00
2023-04-10T23:49:03.644Z,3.83
2023-04-10T23:51:32.009Z,4.10
2023-04-10T23:53:59.418Z,3.88
2023-04-10T23:56:29.417Z,3.80
2023-04-10T23:58:56.773Z,3.55
